createdAt,value
2023-02-05T00:01:44.697Z,6.50
2023-02-05T00:04:47.438Z,6.70
2023-02-05T00:07:50.126Z,7.30
2023-02-05T00:10:53.093Z,5.85
2023-02-05T00:13:57.214Z,6.70
2023-02-05T00:17:04.810Z,6.65
2023-02-05T00:20:08.785Z,6.88
2023-02-05T00:23:11.376Z,8.17
2023-02-05T00:26:14.875Z,6.97
2023-02-05T00:29:20.139Z,7.75
2023-02-05T00:32:22.787Z,6.95
2023-02-05T00:35:25.662Z,8.85
2023-02-05T00:38:28.338Z,6.80
2023-02-05T00:41:30.928Z,7.75
2023-02-05T00:44:35.234Z,8.25
2023-02-05T00:47:37.863Z,7.30
2023-02-05T00:50:40.914Z,6.90
2023-02-05T00:53:46.264Z,8.23
2023-02-05T00:56:48.939Z,7.93
2023-02-05T00:59:53.334Z,6.38
2023-02-05T01:02:56.090Z,5.57
2023-02-05T01:05:59.476Z,7.03
2023-02-05T01:09:02.235Z,6.90
2023-02-05T01:12:05.214Z,7.75
2023-02-05T01:15:12.086Z,6.45
2023-02-05T01:18:14.926Z,6.68
2023-02-05T01:21:17.639Z,7.15
2023-02-05T01:24:20.360Z,5.53
2023-02-05T01:27:24.390Z,6.35
2023-02-05T01:30:28.507Z,5.22
2023-02-05T01:33:31.129Z,5.53
2023-02-05T01:36:33.866Z,3.67
2023-02-05T01:39:37.586Z,6.07
2023-02-05T01:42:40.271Z,4.95
2023-02-05T01:46:13.964Z,3.88
2023-02-05T01:49:22.285Z,4.10
2023-02-05T01:52:25.818Z,4.72
2023-02-05T01:55:29.908Z,3.13
2023-02-05T01:58:36.022Z,3.75
2023-02-05T02:01:41.525Z,2.88
2023-02-05T02:04:47.257Z,3.53
2023-02-05T02:07:49.902Z,2.20
2023-02-05T02:10:56.618Z,3.33
2023-02-05T02:14:02.816Z,1.75
2023-02-05T02:17:09.293Z,2.00
2023-02-05T02:20:16.019Z,2.05
2023-02-05T02:23:27.924Z,3.25
2023-02-05T02:26:53.561Z,5.33
2023-02-05T02:30:03.445Z,2.83
2023-02-05T02:33:17.850Z,2.60
2023-02-05T02:36:25.396Z,4.78
2023-02-05T02:39:37.278Z,3.20
2023-02-05T02:42:45.778Z,4.90
2023-02-05T02:45:53.489Z,4.60
2023-02-05T02:49:00.237Z,3.67
2023-02-05T02:52:07.759Z,9.05
2023-02-05T02:55:13.239Z,6.40
2023-02-05T02:58:23.493Z,8.10
2023-02-05T03:01:34.866Z,6.07
2023-02-05T03:04:41.448Z,4.10
2023-02-05T03:07:49.581Z,3.25
2023-02-05T03:10:59.168Z,4.50
2023-02-05T03:14:02.431Z,3.33
2023-02-05T03:17:18.480Z,4.22
2023-02-05T03:20:26.283Z,5.47
2023-02-05T03:23:29.357Z,3.80
2023-02-05T03:26:38.372Z,3.17
2023-02-05T03:29:50.684Z,2.30
2023-02-05T03:33:06.930Z,3.08
2023-02-05T03:36:17.415Z,3.03
2023-02-05T03:39:27.464Z,3.88
2023-02-05T03:42:39.780Z,3.08
2023-02-05T03:45:48.813Z,3.37
2023-02-05T03:49:06.998Z,4.22
2023-02-05T03:52:15.284Z,1.85
2023-02-05T03:55:22.220Z,2.40
2023-02-05T03:58:29.480Z,2.00
2023-02-05T04:01:33.477Z,1.70
2023-02-05T04:04:37.648Z,2.28
2023-02-05T04:07:42.498Z,2.50
2023-02-05T04:10:46.638Z,3.08
2023-02-05T04:13:49.276Z,2.13
2023-02-05T04:16:51.967Z,2.40
2023-02-05T04:19:58.565Z,3.47
2023-02-05T04:23:01.415Z,1.90
2023-02-05T04:26:06.544Z,3.28
2023-02-05T04:29:15.987Z,3.00
2023-02-05T04:32:22.086Z,2.57
2023-02-05T04:35:26.265Z,3.38
2023-02-05T04:38:28.968Z,1.90
2023-02-05T04:41:31.734Z,4.10
2023-02-05T04:44:34.366Z,4.03
2023-02-05T04:47:37.034Z,4.27
2023-02-05T04:50:41.196Z,3.22
2023-02-05T04:53:44.024Z,2.85
2023-02-05T04:56:48.055Z,2.58
2023-02-05T04:59:50.828Z,3.60
2023-02-05T05:02:53.843Z,15.10
2023-02-05T05:06:03.517Z,3.78
2023-02-05T05:09:06.408Z,2.58
2023-02-05T05:12:09.150Z,2.97
2023-02-05T05:15:11.833Z,3.97
2023-02-05T05:18:14.579Z,4.60
2023-02-05T05:21:18.709Z,5.05
2023-02-05T05:24:21.407Z,5.03
2023-02-05T05:27:24.914Z,2.97
2023-02-05T05:30:28.233Z,2.35
2023-02-05T05:33:30.905Z,3.57
2023-02-05T05:36:34.950Z,3.95
2023-02-05T05:39:56.237Z,4.65
2023-02-05T05:43:17.562Z,10.65
2023-02-05T05:46:22.732Z,6.60
2023-02-05T05:49:26.243Z,4.50
2023-02-05T05:52:32.374Z,5.85
2023-02-05T05:55:35.639Z,4.18
2023-02-05T05:58:38.945Z,3.72
2023-02-05T06:01:41.631Z,4.40
2023-02-05T06:04:44.470Z,3.63
2023-02-05T06:07:48.545Z,5.28
2023-02-05T06:10:51.482Z,4.40
2023-02-05T06:13:54.129Z,5.00
2023-02-05T06:16:56.768Z,3.35
2023-02-05T06:19:59.519Z,2.93
2023-02-05T06:23:03.567Z,7.43
2023-02-05T06:26:06.178Z,4.38
2023-02-05T06:29:08.924Z,3.60
2023-02-05T06:32:11.581Z,3.28
2023-02-05T06:35:14.358Z,6.30
2023-02-05T06:38:18.400Z,5.00
2023-02-05T06:41:20.998Z,3.45
2023-02-05T06:44:24.361Z,4.60
2023-02-05T06:47:26.999Z,4.13
2023-02-05T06:50:29.803Z,3.60
2023-02-05T06:53:33.835Z,5.65
2023-02-05T06:56:36.506Z,5.30
2023-02-05T06:59:39.312Z,4.60
2023-02-05T07:02:42.638Z,4.30
2023-02-05T07:05:45.323Z,7.27
2023-02-05T07:08:49.618Z,4.15
2023-02-05T07:11:52.307Z,4.03
2023-02-05T07:14:54.956Z,4.90
2023-02-05T07:17:57.616Z,4.72
2023-02-05T07:21:00.912Z,4.57
2023-02-05T07:24:05.368Z,4.32
2023-02-05T07:27:08.082Z,4.00
2023-02-05T07:30:12.275Z,4.82
2023-02-05T07:33:14.955Z,7.03
2023-02-05T07:36:19.043Z,4.97
2023-02-05T07:39:23.061Z,5.85
2023-02-05T07:42:25.782Z,4.20
2023-02-05T07:45:33.525Z,5.60
2023-02-05T07:48:36.900Z,5.70
2023-02-05T07:51:40.679Z,4.93
2023-02-05T07:54:44.771Z,3.40
2023-02-05T07:57:47.545Z,6.07
2023-02-05T08:00:50.574Z,16.90
2023-02-05T08:03:53.393Z,7.45
2023-02-05T08:06:56.160Z,4.57
2023-02-05T08:10:00.170Z,4.93
2023-02-05T08:13:02.796Z,7.07
2023-02-05T08:16:06.412Z,24.55
2023-02-05T08:19:14.463Z,5.18
2023-02-05T08:22:17.198Z,13.30
2023-02-05T08:25:21.406Z,5.93
2023-02-05T08:28:25.926Z,7.15
2023-02-05T08:31:29.755Z,9.77
2023-02-05T08:34:32.435Z,6.43
2023-02-05T08:37:35.261Z,5.80
2023-02-05T08:40:39.627Z,6.70
2023-02-05T08:43:43.633Z,5.72
2023-02-05T08:46:50.084Z,5.95
2023-02-05T08:49:53.605Z,4.88
2023-02-05T08:52:56.318Z,6.60
2023-02-05T08:56:02.704Z,7.68
2023-02-05T08:59:05.521Z,5.88
2023-02-05T09:02:08.223Z,6.95
2023-02-05T09:05:12.482Z,8.77
2023-02-05T09:08:15.225Z,9.33
2023-02-05T09:11:22.162Z,10.45
2023-02-05T09:14:24.903Z,4.82
2023-02-05T09:17:27.676Z,7.38
2023-02-05T09:20:31.174Z,8.40
2023-02-05T09:23:33.984Z,7.20
2023-02-05T09:26:38.196Z,7.57
2023-02-05T09:29:41.166Z,6.75
2023-02-05T09:32:44.883Z,6.78
2023-02-05T09:35:47.572Z,9.80
2023-02-05T09:39:01.919Z,11.17
2023-02-05T09:42:20.543Z,6.00
2023-02-05T09:45:38.310Z,12.07
2023-02-05T09:48:52.740Z,7.38
2023-02-05T09:52:02.217Z,9.80
2023-02-05T09:55:14.739Z,13.47
2023-02-05T09:58:24.703Z,12.55
2023-02-05T10:01:39.370Z,9.10
2023-02-05T10:04:42.078Z,6.43
2023-02-05T10:07:52.830Z,7.72
2023-02-05T10:10:57.876Z,6.60
2023-02-05T10:14:11.589Z,5.20
2023-02-05T10:17:29.456Z,8.60
2023-02-05T10:20:49.544Z,6.63
2023-02-05T10:24:04.283Z,9.73
2023-02-05T10:27:16.836Z,4.93
2023-02-05T10:30:28.340Z,2.83
2023-02-05T10:33:44.465Z,5.22
2023-02-05T10:36:52.161Z,5.15
2023-02-05T10:39:57.645Z,4.43
2023-02-05T10:43:03.701Z,3.00
2023-02-05T10:46:12.504Z,4.95
2023-02-05T10:49:20.219Z,4.35
2023-02-05T10:52:23.027Z,6.05
2023-02-05T10:55:25.747Z,4.53
2023-02-05T10:58:45.384Z,6.67
2023-02-05T11:01:50.696Z,6.80
2023-02-05T11:04:59.691Z,10.05
2023-02-05T11:08:02.816Z,8.05
2023-02-05T11:11:06.620Z,24.42
2023-02-05T11:14:22.219Z,18.67
2023-02-05T11:17:32.173Z,7.85
2023-02-05T11:20:37.603Z,6.60
2023-02-05T11:23:53.826Z,7.00
2023-02-05T11:27:28.497Z,12.32
2023-02-05T11:34:10.944Z,9.27
2023-02-05T11:37:17.218Z,19.50
2023-02-05T11:40:22.759Z,13.68
2023-02-05T11:43:30.077Z,8.75
2023-02-05T11:46:42.258Z,9.87
2023-02-05T11:49:51.177Z,4.70
2023-02-05T11:52:54.574Z,18.40
2023-02-05T11:56:00.542Z,17.48
2023-02-05T11:59:06.469Z,12.70
2023-02-05T12:02:29.316Z,10.23
2023-02-05T12:05:38.813Z,6.72
2023-02-05T12:08:48.893Z,9.35
2023-02-05T12:12:06.810Z,6.32
2023-02-05T12:15:19.643Z,8.50
2023-02-05T12:18:34.510Z,13.00
2023-02-05T12:21:47.336Z,9.73
2023-02-05T12:25:09.175Z,8.55
2023-02-05T12:28:29.188Z,12.68
2023-02-05T12:31:42.914Z,12.05
2023-02-05T12:35:01.300Z,10.67
2023-02-05T12:38:16.732Z,13.18
2023-02-05T12:41:29.797Z,12.25
2023-02-05T12:44:47.200Z,5.35
2023-02-05T12:48:01.820Z,7.80
2023-02-05T12:51:16.358Z,8.93
2023-02-05T12:54:39.686Z,10.13
2023-02-05T12:57:47.423Z,11.93
2023-02-05T13:00:54.157Z,19.77
2023-02-05T13:04:01.350Z,15.85
2023-02-05T13:07:12.041Z,17.47
2023-02-05T13:10:21.027Z,10.45
2023-02-05T13:13:30.498Z,22.60
2023-02-05T13:16:38.012Z,7.68
2023-02-05T13:19:43.565Z,40.47
2023-02-05T13:23:13.125Z,16.37
2023-02-05T13:26:36.863Z,7.10
2023-02-05T13:29:51.181Z,5.75
2023-02-05T13:33:00.410Z,9.30
2023-02-05T13:36:20.970Z,10.07
2023-02-05T13:39:43.613Z,9.63
2023-02-05T13:43:08.740Z,13.25
2023-02-05T13:46:43.162Z,15.07
2023-02-05T13:50:15.313Z,31.48
2023-02-05T13:53:31.065Z,14.88
2023-02-05T13:56:47.301Z,27.90
2023-02-05T13:59:54.086Z,11.23
2023-02-05T14:02:58.873Z,14.52
2023-02-05T14:06:23.000Z,17.60
2023-02-05T14:09:33.899Z,21.50
2023-02-05T14:12:38.055Z,11.73
2023-02-05T14:15:43.547Z,10.02
2023-02-05T14:18:51.212Z,16.38
2023-02-05T14:22:04.399Z,16.38
2023-02-05T14:25:46.182Z,14.30
2023-02-05T14:28:51.259Z,15.27
2023-02-05T14:31:55.638Z,12.43
2023-02-05T14:35:00.237Z,10.10
2023-02-05T14:38:16.222Z,10.00
2023-02-05T14:41:22.421Z,14.13
2023-02-05T14:44:30.551Z,11.33
2023-02-05T14:47:36.049Z,9.48
2023-02-05T14:50:43.246Z,11.82
2023-02-05T14:53:55.697Z,8.98
2023-02-05T14:57:13.018Z,11.23
2023-02-05T15:00:28.178Z,18.73
2023-02-05T15:03:39.961Z,16.80
2023-02-05T15:06:43.279Z,13.18
2023-02-05T15:09:51.919Z,9.88
2023-02-05T15:13:03.247Z,13.13
2023-02-05T15:16:24.426Z,14.27
2023-02-05T15:19:30.297Z,11.20
2023-02-05T15:22:37.610Z,11.27
2023-02-05T15:25:45.387Z,15.20
2023-02-05T15:28:57.215Z,11.70
2023-02-05T15:32:03.147Z,14.50
2023-02-05T15:35:15.178Z,22.50
2023-02-05T15:38:28.156Z,18.60
2023-02-05T15:41:33.541Z,17.50
2023-02-05T15:44:37.639Z,11.85
2023-02-05T15:47:41.464Z,9.27
2023-02-05T15:50:51.906Z,11.90
2023-02-05T15:53:57.639Z,13.95
2023-02-05T15:57:01.907Z,25.45
2023-02-05T16:00:09.071Z,19.77
2023-02-05T16:03:25.203Z,22.37
2023-02-05T16:06:30.613Z,24.38
2023-02-05T16:09:35.237Z,21.80
2023-02-05T16:12:37.977Z,17.08
2023-02-05T16:15:45.471Z,14.48
2023-02-05T16:18:53.011Z,18.30
2023-02-05T16:22:00.515Z,17.73
2023-02-05T16:25:07.027Z,31.75
2023-02-05T16:28:17.020Z,51.35
2023-02-05T16:31:24.068Z,26.20
2023-02-05T16:34:28.236Z,17.97
2023-02-05T16:37:33.182Z,15.95
2023-02-05T16:40:44.232Z,16.02
2023-02-05T16:43:48.031Z,28.50
2023-02-05T16:47:06.348Z,19.40
2023-02-05T16:50:35.105Z,45.20
2023-02-05T16:53:49.931Z,22.50
2023-02-05T16:56:57.839Z,14.98
2023-02-05T17:00:05.041Z,12.30
2023-02-05T17:03:17.703Z,18.73
2023-02-05T17:06:21.155Z,13.40
2023-02-05T17:09:34.504Z,15.38
2023-02-05T17:12:39.791Z,16.05
2023-02-05T17:15:43.545Z,11.02
2023-02-05T17:18:53.870Z,10.43
2023-02-05T17:22:20.086Z,13.77
2023-02-05T17:25:24.887Z,16.05
2023-02-05T17:28:29.892Z,12.52
2023-02-05T17:31:37.608Z,10.73
2023-02-05T17:34:40.608Z,14.13
2023-02-05T17:37:44.152Z,9.80
2023-02-05T17:40:48.454Z,13.30
2023-02-05T17:43:51.596Z,11.48
2023-02-05T17:46:54.705Z,12.70
2023-02-05T17:49:57.936Z,14.95
2023-02-05T17:53:01.263Z,11.67
2023-02-05T17:56:07.649Z,13.00
2023-02-05T17:59:11.833Z,15.60
2023-02-05T18:02:15.960Z,10.70
2023-02-05T18:05:20.454Z,16.17
2023-02-05T18:08:24.332Z,15.60
2023-02-05T18:11:28.627Z,21.35
2023-02-05T18:14:31.461Z,9.50
2023-02-05T18:17:34.535Z,14.25
2023-02-05T18:20:39.213Z,8.65
2023-02-05T18:23:42.368Z,13.47
2023-02-05T18:26:52.277Z,9.85
2023-02-05T18:29:55.393Z,12.98
2023-02-05T18:32:58.357Z,20.00
2023-02-05T18:36:01.932Z,12.85
2023-02-05T18:39:04.888Z,20.83
2023-02-05T18:42:09.388Z,21.08
2023-02-05T18:45:12.306Z,18.58
2023-02-05T18:48:15.385Z,20.23
2023-02-05T18:51:20.061Z,20.13
2023-02-05T18:54:23.079Z,12.90
2023-02-05T18:57:27.462Z,16.00
2023-02-05T19:00:31.915Z,15.73
2023-02-05T19:03:35.180Z,10.98
2023-02-05T19:06:40.424Z,15.65
2023-02-05T19:09:43.540Z,10.70
2023-02-05T19:12:48.883Z,11.30
2023-02-05T19:15:53.517Z,9.85
2023-02-05T19:18:56.983Z,8.88
2023-02-05T19:22:02.716Z,13.18
2023-02-05T19:25:07.901Z,21.03
2023-02-05T19:28:12.308Z,20.42
2023-02-05T19:31:16.015Z,16.85
2023-02-05T19:34:20.236Z,17.92
2023-02-05T19:37:23.709Z,17.65
2023-02-05T19:40:26.667Z,17.67
2023-02-05T19:43:31.106Z,13.20
2023-02-05T19:46:36.986Z,16.70
2023-02-05T19:49:40.168Z,17.52
2023-02-05T19:52:44.131Z,19.92
2023-02-05T19:55:47.226Z,13.17
2023-02-05T19:58:53.540Z,12.73
2023-02-05T20:01:56.869Z,14.52
2023-02-05T20:04:59.601Z,11.60
2023-02-05T20:08:02.819Z,11.57
2023-02-05T20:11:06.487Z,12.30
2023-02-05T20:14:11.837Z,11.50
2023-02-05T20:17:17.638Z,10.77
2023-02-05T20:20:44.434Z,14.57
2023-02-05T20:23:46.033Z,12.95
2023-02-05T20:26:48.927Z,12.57
2023-02-05T20:30:11.713Z,16.73
2023-02-05T20:33:15.214Z,14.25
2023-02-05T20:36:18.146Z,15.13
2023-02-05T20:39:22.470Z,13.90
2023-02-05T20:42:25.252Z,15.70
2023-02-05T20:45:29.663Z,17.48
2023-02-05T20:48:32.718Z,17.85
2023-02-05T20:51:35.939Z,15.38
2023-02-05T20:54:39.362Z,16.58
2023-02-05T20:57:44.992Z,12.70
2023-02-05T21:00:50.571Z,14.18
2023-02-05T21:03:57.716Z,13.75
2023-02-05T21:07:01.050Z,15.70
2023-02-05T21:10:05.748Z,11.80
2023-02-05T21:13:08.468Z,13.50
2023-02-05T21:16:14.001Z,12.73
2023-02-05T21:19:18.374Z,13.25
2023-02-05T21:22:21.423Z,13.07
2023-02-05T21:25:24.042Z,17.35
2023-02-05T21:28:27.726Z,14.10
2023-02-05T21:31:36.064Z,15.65
2023-02-05T21:34:39.003Z,12.90
2023-02-05T21:37:41.925Z,17.95
2023-02-05T21:40:45.835Z,14.93
2023-02-05T21:43:49.266Z,14.10
2023-02-05T21:46:54.588Z,16.35
2023-02-05T21:49:57.222Z,16.42
2023-02-05T21:53:00.948Z,26.80
2023-02-05T21:56:05.727Z,22.38
2023-02-05T21:59:10.922Z,14.30
2023-02-05T22:02:15.187Z,16.27
2023-02-05T22:05:18.164Z,18.20
2023-02-05T22:08:20.789Z,16.98
2023-02-05T22:11:25.174Z,15.85
2023-02-05T22:14:27.976Z,11.93
2023-02-05T22:17:32.036Z,14.20
2023-02-05T22:20:34.735Z,23.20
2023-02-05T22:23:37.484Z,13.07
2023-02-05T22:26:41.531Z,16.05
2023-02-05T22:29:44.457Z,12.87
2023-02-05T22:32:48.513Z,13.25
2023-02-05T22:35:51.832Z,11.52
2023-02-05T22:38:55.246Z,10.15
2023-02-05T22:41:58.054Z,13.70
2023-02-05T22:45:00.812Z,16.40
2023-02-05T22:48:04.983Z,12.85
2023-02-05T22:51:10.440Z,14.98
2023-02-05T22:54:15.186Z,11.90
2023-02-05T22:57:17.832Z,10.98
2023-02-05T23:00:20.624Z,13.43
2023-02-05T23:03:25.498Z,12.23
2023-02-05T23:06:30.133Z,13.05
2023-02-05T23:09:34.454Z,10.95
2023-02-05T23:12:37.178Z,14.25
2023-02-05T23:15:40.174Z,12.83
2023-02-05T23:18:44.704Z,13.38
2023-02-05T23:21:48.229Z,14.32
2023-02-05T23:24:50.829Z,15.00
2023-02-05T23:27:53.578Z,15.93
2023-02-05T23:30:56.297Z,10.40
2023-02-05T23:34:00.774Z,13.55
2023-02-05T23:37:03.348Z,10.13
2023-02-05T23:40:07.000Z,12.23
2023-02-05T23:43:09.835Z,12.85
2023-02-05T23:46:12.517Z,14.97
2023-02-05T23:49:17.540Z,11.80
2023-02-05T23:52:20.368Z,14.02
2023-02-05T23:55:23.007Z,12.10
2023-02-05T23:58:27.874Z,13.38
